Ocean Moon — 3EVH8 — position and weather

sailwx.info

Track history (hours):
 
Tides and Currents Weather Stations Pressure Air Temp Water Temp Dewpoint Dewpoint Depression Visibility Wind Speed Wind Dir Waves Ship Positions

Ocean Moon

Last reported at 2017-Sep-13 22:08 UTC. Time now 2017-Sep-22 04:24 UTC.
Position N 14°30' W 061°20'.
Warning: this ship's position is 8 days out of date.

Length 92 m; draft 5.2 m.

Type: Tanker. MMSI: 353455000.

Date/timePositionNaut miles runAvg speedWind from/ knotsBaromVisibWave heightAir tempDewpointWater temp
2017-Sep-13 22:08N 14°30' W 061°20'11 9.9
2017-Sep-13 21:01N 14°40' W 061°25'  
2017-Sep-10 07:07N 16°56' W 062°26'1 6.0
2017-Sep-10 07:00N 16°55' W 062°26'5 6.0
2017-Sep-10 06:11N 16°53' W 062°21'3 5.9
2017-Sep-10 05:44N 16°51' W 062°19'1 5.8
2017-Sep-10 05:30N 16°50' W 062°18'3 5.8
2017-Sep-10 05:00N 16°49' W 062°15'3 3.9
2017-Sep-10 04:20N 16°48' W 062°13'0 0.0
2017-Sep-09 16:50N 16°48' W 062°13'0 0.0
2017-Sep-09 16:23N 16°48' W 062°13'0 0.0
2017-Sep-09 14:41N 16°48' W 062°13'0 0.0
2017-Sep-09 14:29N 16°48' W 062°13'0 0.0
2017-Sep-09 12:02N 16°48' W 062°13'0 0.1
2017-Sep-09 11:56N 16°48' W 062°13'0 0.1
2017-Sep-09 11:26N 16°48' W 062°13'0 0.3
2017-Sep-09 11:00N 16°48' W 062°13'0 0.9
2017-Sep-09 10:30N 16°48' W 062°13'3 6.4
2017-Sep-09 10:00N 16°48' W 062°16'4 7.5
2017-Sep-09 09:30N 16°47' W 062°20'4 7.8
2017-Sep-09 09:00N 16°48' W 062°24'  
2017-Sep-04 03:50N 18°19' W 064°30'510.2
2017-Sep-04 03:19N 18°22' W 064°34'310.3
2017-Sep-04 03:00N 18°23' W 064°38'1 1.3
2017-Sep-04 02:00N 18°23' W 064°39'0 0.0
2017-Sep-04 01:30N 18°23' W 064°39'0 0.0
2017-Sep-04 01:00N 18°23' W 064°39'0 0.0
2017-Sep-04 00:30N 18°23' W 064°39'0 0.0
2017-Sep-04 00:00N 18°23' W 064°39'0 0.0
2017-Sep-03 23:06N 18°23' W 064°39'0 0.0
2017-Sep-03 22:48N 18°23' W 064°39'0 0.0
2017-Sep-03 22:30N 18°23' W 064°39'  
Track history (hours):
 
Tides and Currents Weather Stations Pressure Air Temp Water Temp Dewpoint Dewpoint Depression Visibility Wind Speed Wind Dir Waves Ship Positions

Ocean Moon

Last reported at 2017-Sep-13 22:08 UTC. Time now 2017-Sep-22 04:24 UTC.
Position N 14°30' W 061°20'.
Warning: this ship's position is 8 days out of date.

Length 92 m; draft 5.2 m.

Type: Tanker. MMSI: 353455000.

Date/timePositionNaut miles runAvg speedWind from/ knotsBaromVisibWave heightAir tempDewpointWater temp
2017-Sep-13 22:08N 14°30' W 061°20'11 9.9
2017-Sep-13 21:01N 14°40' W 061°25'  
2017-Sep-10 07:07N 16°56' W 062°26'1 6.0
2017-Sep-10 07:00N 16°55' W 062°26'5 6.0
2017-Sep-10 06:11N 16°53' W 062°21'3 5.9
2017-Sep-10 05:44N 16°51' W 062°19'1 5.8
2017-Sep-10 05:30N 16°50' W 062°18'3 5.8
2017-Sep-10 05:00N 16°49' W 062°15'3 3.9
2017-Sep-10 04:20N 16°48' W 062°13'0 0.0
2017-Sep-09 16:50N 16°48' W 062°13'0 0.0
2017-Sep-09 16:23N 16°48' W 062°13'0 0.0
2017-Sep-09 14:41N 16°48' W 062°13'0 0.0
2017-Sep-09 14:29N 16°48' W 062°13'0 0.0
2017-Sep-09 12:02N 16°48' W 062°13'0 0.1
2017-Sep-09 11:56N 16°48' W 062°13'0 0.1
2017-Sep-09 11:26N 16°48' W 062°13'0 0.3
2017-Sep-09 11:00N 16°48' W 062°13'0 0.9
2017-Sep-09 10:30N 16°48' W 062°13'3 6.4
2017-Sep-09 10:00N 16°48' W 062°16'4 7.5
2017-Sep-09 09:30N 16°47' W 062°20'4 7.8
2017-Sep-09 09:00N 16°48' W 062°24'  
2017-Sep-04 03:50N 18°19' W 064°30'510.2
2017-Sep-04 03:19N 18°22' W 064°34'310.3
2017-Sep-04 03:00N 18°23' W 064°38'1 1.3
2017-Sep-04 02:00N 18°23' W 064°39'0 0.0
2017-Sep-04 01:30N 18°23' W 064°39'0 0.0
2017-Sep-04 01:00N 18°23' W 064°39'0 0.0
2017-Sep-04 00:30N 18°23' W 064°39'0 0.0
2017-Sep-04 00:00N 18°23' W 064°39'0 0.0
2017-Sep-03 23:06N 18°23' W 064°39'0 0.0
2017-Sep-03 22:48N 18°23' W 064°39'0 0.0
2017-Sep-03 22:30N 18°23' W 064°39'  

Dump ship's entire track history